To NAV CANADA Home Page Login to a new session Search on AWWS site Disclaimer Vers la page française équivalente Tips FAQ What's new on the site To the Forecasts and Observations / NOTAM section To "File a Flight Plan" website Publications and other links Update of the User's profile FIC Telephone Numbers My Weather Data Folder Route Weather Data Regional Weather Data Local Weather Data To the Forecasts and Observations / NOTAM section
Request Generated 09/19/2018 at 05:28:40 UTC . Weather information available at that time is displayed.

METAR/TAF

TORONTO/BILLY BISHOP TORONTO CITY AIRPORT/ON    (show WxCam)

METAR CYTZ 190500Z AUTO 33011KT 9SM OVC180 17/13 A2992 RMK SLP133 DENSITY ALT 500FT=
METAR CYTZ 190400Z AUTO 34009KT 320V020 9SM CLR 17/13 A2992 RMK SLP131 DENSITY ALT 500FT=
METAR CYTZ 190300Z AUTO 34008KT 300V010 9SM CLR 17/13 A2991 RMK SLP128 DENSITY ALT 500FT=

TAF CYTZ 190138Z 1902/2002 34015KT P6SM SKC
FM190600 36008KT P6SM BKN050 BKN100
FM191100 03010KT P6SM FEW020
BECMG 1916/1918 09007KT
BECMG 1921/1923 VRB03KT
RMK FCST BASED ON AUTO OBS. NXT FCST BY 190800Z=
Your time UTC time
Weather data provided by Environment Canada and NAV CANADA